createdAt,value
2019-05-11T00:01:38.020Z,4.30
2019-05-11T00:04:06.820Z,3.97
2019-05-11T00:06:35.586Z,4.23
2019-05-11T00:09:06.516Z,4.37
2019-05-11T00:11:35.365Z,4.63
2019-05-11T00:14:04.189Z,4.17
2019-05-11T00:16:33.128Z,3.33
2019-05-11T00:19:02.023Z,5.60
2019-05-11T00:21:30.887Z,4.23
2019-05-11T00:24:00.285Z,3.90
2019-05-11T00:26:29.188Z,5.87
2019-05-11T00:28:58.081Z,4.43
2019-05-11T00:31:27.097Z,4.23
2019-05-11T00:33:56.403Z,3.97
2019-05-11T00:36:25.289Z,3.63
2019-05-11T00:38:54.385Z,3.57
2019-05-11T00:41:24.916Z,4.00
2019-05-11T00:43:53.661Z,3.70
2019-05-11T00:46:22.984Z,4.80
2019-05-11T00:48:51.736Z,4.30
2019-05-11T00:51:21.098Z,3.40
2019-05-11T00:53:49.847Z,4.30
2019-05-11T00:56:18.744Z,4.13
2019-05-11T00:58:50.801Z,4.03
2019-05-11T01:01:18.309Z,4.20
2019-05-11T01:03:47.213Z,4.57
2019-05-11T01:06:16.215Z,3.90
2019-05-11T01:08:44.988Z,4.00
2019-05-11T01:11:13.875Z,4.33
2019-05-11T01:13:42.557Z,4.83
2019-05-11T01:16:11.450Z,4.83
2019-05-11T01:18:40.169Z,5.13
2019-05-11T01:21:08.995Z,4.90
2019-05-11T01:23:38.137Z,4.80
2019-05-11T01:26:07.017Z,4.80
2019-05-11T01:28:35.980Z,5.43
2019-05-11T01:31:04.835Z,5.53
2019-05-11T01:33:33.581Z,4.37
2019-05-11T01:36:02.463Z,5.00
2019-05-11T01:38:31.377Z,4.70
2019-05-11T01:41:00.512Z,4.77
2019-05-11T01:43:29.571Z,4.83
2019-05-11T01:45:59.689Z,4.93
2019-05-11T01:48:28.507Z,4.40
2019-05-11T01:50:57.383Z,5.03
2019-05-11T01:53:26.166Z,6.57
2019-05-11T01:55:55.163Z,4.50
2019-05-11T01:58:24.253Z,4.90
2019-05-11T02:00:53.106Z,4.70
2019-05-11T02:03:21.846Z,4.97
2019-05-11T02:05:51.745Z,4.63
2019-05-11T02:08:20.952Z,4.10
2019-05-11T02:10:49.772Z,4.90
2019-05-11T02:13:18.591Z,6.60
2019-05-11T02:15:49.619Z,4.70
2019-05-11T02:18:18.666Z,4.37
2019-05-11T02:20:47.627Z,4.30
2019-05-11T02:23:16.451Z,6.47
2019-05-11T02:25:45.205Z,6.90
2019-05-11T02:28:13.990Z,5.27
2019-05-11T02:30:42.774Z,5.13
2019-05-11T02:33:11.580Z,4.80
2019-05-11T02:35:41.030Z,6.33
2019-05-11T02:38:10.047Z,5.43
2019-05-11T02:40:38.895Z,5.13
2019-05-11T02:43:07.614Z,4.93
2019-05-11T02:45:41.778Z,6.33
2019-05-11T02:48:11.534Z,5.30
2019-05-11T02:50:40.274Z,6.33
2019-05-11T02:53:09.576Z,6.27
2019-05-11T02:55:38.510Z,6.10
2019-05-11T02:58:08.112Z,6.60
2019-05-11T03:00:39.621Z,6.93
2019-05-11T03:03:08.702Z,6.70
2019-05-11T03:05:37.648Z,6.93
2019-05-11T03:08:06.850Z,7.80
2019-05-11T03:10:35.712Z,7.70
2019-05-11T03:13:04.491Z,8.43
2019-05-11T03:15:33.328Z,10.20
2019-05-11T03:18:02.867Z,8.87
2019-05-11T03:20:31.622Z,9.37
2019-05-11T03:23:00.574Z,9.77
2019-05-11T03:25:29.445Z,8.67
2019-05-11T03:27:58.271Z,9.13
2019-05-11T03:30:27.190Z,10.47
2019-05-11T03:32:55.789Z,11.27
2019-05-11T03:35:24.621Z,8.87
2019-05-11T03:37:53.334Z,8.30
2019-05-11T03:40:22.111Z,8.23
2019-05-11T03:42:50.889Z,8.03
2019-05-11T03:45:19.628Z,8.10
2019-05-11T03:47:48.328Z,7.77
2019-05-11T03:50:17.160Z,9.03
2019-05-11T03:52:46.181Z,8.23
2019-05-11T03:55:15.458Z,9.43
2019-05-11T03:57:44.179Z,8.03
2019-05-11T04:00:14.463Z,10.17
2019-05-11T04:02:43.176Z,9.60
2019-05-11T04:05:12.253Z,8.73
2019-05-11T04:07:41.014Z,7.43
2019-05-11T04:10:10.200Z,7.50
2019-05-11T04:12:38.976Z,7.50
2019-05-11T04:15:08.611Z,8.23
2019-05-11T04:17:38.484Z,8.97
2019-05-11T04:20:07.740Z,9.50
2019-05-11T04:22:36.446Z,8.27
2019-05-11T04:25:06.377Z,8.73
2019-05-11T04:27:35.196Z,8.23
2019-05-11T04:30:06.762Z,8.47
2019-05-11T08:01:54.576Z,2.90
2019-05-11T08:04:23.424Z,3.07
2019-05-11T08:06:52.118Z,2.57
2019-05-11T08:09:21.012Z,2.27
2019-05-11T08:11:49.924Z,2.53
2019-05-11T08:14:18.821Z,2.10
2019-05-11T08:16:48.138Z,2.57
2019-05-11T08:19:18.483Z,2.23
2019-05-11T08:21:48.188Z,2.50
2019-05-11T08:24:18.033Z,3.27
2019-05-11T08:26:48.045Z,2.67
2019-05-11T08:29:18.552Z,2.03
2019-05-11T08:31:48.769Z,1.43
2019-05-11T08:34:18.083Z,2.43
2019-05-11T08:36:48.000Z,2.47
2019-05-11T08:39:18.211Z,2.17
2019-05-11T08:41:48.829Z,1.70
2019-05-11T08:44:18.280Z,2.20
2019-05-11T08:46:47.879Z,3.77
2019-05-11T08:49:18.919Z,2.60
2019-05-11T08:51:47.915Z,2.83
2019-05-11T08:54:18.301Z,2.97
2019-05-11T08:56:48.635Z,2.70
2019-05-11T08:59:18.648Z,1.90
2019-05-11T09:01:48.419Z,1.80
2019-05-11T09:04:18.244Z,3.07
2019-05-11T09:06:47.987Z,1.00
2019-05-11T09:09:18.113Z,1.60
2019-05-11T09:11:48.113Z,2.73
2019-05-11T09:14:18.817Z,1.40
2019-05-11T09:16:48.908Z,2.57
2019-05-11T09:19:18.016Z,1.77
2019-05-11T09:21:48.157Z,2.27
2019-05-11T09:24:18.967Z,2.37
2019-05-11T09:26:48.023Z,1.83
2019-05-11T09:29:17.960Z,1.90
2019-05-11T09:31:48.746Z,1.70
2019-05-11T09:34:18.132Z,1.87
2019-05-11T09:36:47.971Z,2.83
2019-05-11T09:39:17.704Z,1.67
2019-05-11T09:41:48.872Z,2.20
2019-05-11T09:44:18.371Z,2.27
2019-05-11T09:46:47.911Z,2.83
2019-05-11T09:49:18.494Z,2.57
2019-05-11T09:51:48.637Z,2.90
2019-05-11T09:54:19.468Z,5.40
2019-05-11T09:56:48.732Z,3.23
2019-05-11T09:59:18.047Z,1.03
2019-05-11T10:01:48.345Z,2.83
2019-05-11T10:04:18.053Z,4.33
2019-05-11T10:06:48.076Z,1.43
2019-05-11T10:09:18.626Z,3.80
2019-05-11T10:11:48.130Z,2.63
2019-05-11T10:14:18.756Z,2.60
2019-05-11T10:16:49.114Z,2.13
2019-05-11T10:19:18.224Z,1.03
2019-05-11T10:21:48.709Z,1.43
2019-05-11T10:24:17.856Z,1.60
2019-05-11T10:26:48.686Z,2.07
2019-05-11T10:29:18.307Z,0.80
2019-05-11T10:31:48.099Z,1.10
2019-05-11T10:34:17.993Z,1.00
2019-05-11T10:36:48.596Z,0.97
2019-05-11T10:39:18.779Z,1.17
2019-05-11T10:41:48.066Z,0.90
2019-05-11T10:44:18.849Z,1.07
2019-05-11T10:46:48.406Z,0.60
2019-05-11T10:49:18.485Z,0.50
2019-05-11T10:51:48.612Z,0.70
2019-05-11T10:54:18.750Z,0.97
2019-05-11T10:56:48.253Z,1.00
2019-05-11T10:59:19.480Z,0.97
2019-05-11T11:01:48.483Z,0.80
2019-05-11T11:04:18.405Z,0.83
2019-05-11T11:06:48.491Z,1.63
2019-05-11T11:09:17.909Z,1.37
2019-05-11T11:11:48.888Z,2.50
2019-05-11T11:14:18.166Z,1.23
2019-05-11T11:16:47.907Z,1.10
2019-05-11T11:19:18.363Z,0.70
2019-05-11T11:21:48.762Z,0.93
2019-05-11T11:24:18.167Z,0.80
2019-05-11T11:26:48.601Z,2.60
2019-05-11T11:29:18.310Z,0.77
2019-05-11T11:31:48.177Z,0.77
2019-05-11T11:34:18.803Z,1.80
2019-05-11T11:36:48.181Z,1.37
2019-05-11T11:39:18.713Z,0.80
2019-05-11T11:41:48.540Z,0.97
2019-05-11T11:44:18.480Z,1.07
2019-05-11T11:46:54.513Z,1.23
2019-05-11T11:49:18.787Z,1.10
2019-05-11T11:51:48.567Z,2.63
2019-05-11T11:54:19.504Z,1.40
2019-05-11T11:56:49.544Z,1.13
2019-05-11T11:59:18.738Z,1.33
2019-05-11T12:01:48.805Z,1.30
2019-05-11T12:04:18.837Z,2.23
2019-05-11T12:06:49.056Z,0.50
2019-05-11T12:09:18.402Z,2.07
2019-05-11T12:11:48.631Z,0.70
2019-05-11T12:14:18.691Z,0.43
2019-05-11T12:17:03.963Z,0.50
2019-05-11T12:19:20.227Z,0.50
2019-05-11T12:21:49.207Z,0.70
2019-05-11T12:24:18.773Z,0.80
2019-05-11T12:26:48.199Z,0.77
2019-05-11T12:29:18.871Z,0.60
2019-05-11T12:31:48.648Z,0.60
2019-05-11T12:34:18.066Z,1.50
2019-05-11T12:36:47.966Z,0.70
2019-05-11T12:39:19.198Z,0.67
2019-05-11T12:41:48.022Z,0.67
2019-05-11T12:44:18.755Z,0.50
2019-05-11T12:46:49.496Z,0.70
2019-05-11T12:49:18.746Z,0.50
2019-05-11T12:51:48.900Z,0.63
2019-05-11T12:54:18.749Z,4.10
2019-05-11T12:56:48.903Z,0.40
2019-05-11T12:59:18.731Z,0.90
2019-05-11T13:01:48.704Z,0.70
2019-05-11T13:04:18.203Z,0.60
2019-05-11T13:06:49.202Z,0.50
2019-05-11T13:09:18.458Z,0.60
2019-05-11T13:11:48.213Z,0.73
2019-05-11T13:14:18.475Z,0.50
2019-05-11T13:16:48.362Z,0.40
2019-05-11T13:19:17.797Z,0.40
2019-05-11T13:21:48.513Z,0.50
2019-05-11T13:24:18.746Z,1.17
2019-05-11T13:26:48.522Z,0.60
2019-05-11T13:29:18.231Z,0.50
2019-05-11T13:31:48.599Z,0.40
2019-05-11T13:34:18.063Z,1.40
2019-05-11T13:36:48.905Z,0.50
2019-05-11T13:39:18.372Z,0.80
2019-05-11T13:41:47.666Z,0.30
2019-05-11T13:44:18.671Z,0.50
2019-05-11T13:46:48.137Z,0.50
2019-05-11T13:49:17.840Z,0.40
2019-05-11T13:51:48.077Z,0.60
2019-05-11T13:54:18.427Z,1.33
2019-05-11T13:56:48.326Z,0.70
2019-05-11T13:59:18.794Z,3.73
2019-05-11T14:01:48.305Z,0.50
2019-05-11T14:04:18.236Z,1.10
2019-05-11T14:06:48.196Z,1.50
2019-05-11T14:09:18.445Z,1.27
2019-05-11T14:11:47.890Z,0.70
2019-05-11T14:14:18.418Z,0.63
2019-05-11T14:16:48.502Z,0.50
2019-05-11T14:19:18.118Z,1.40
2019-05-11T14:21:48.940Z,0.40
2019-05-11T14:24:18.385Z,0.60
2019-05-11T14:26:48.767Z,0.60
2019-05-11T14:29:17.987Z,0.50
2019-05-11T14:31:48.839Z,0.40
2019-05-11T14:34:18.146Z,0.40
2019-05-11T14:36:47.982Z,0.60
2019-05-11T14:39:18.989Z,0.40
2019-05-11T14:41:48.718Z,0.50
2019-05-11T14:44:18.257Z,0.50
2019-05-11T14:46:47.763Z,1.07
2019-05-11T14:49:18.418Z,0.77
2019-05-11T14:51:48.501Z,0.77
2019-05-11T14:54:18.845Z,0.63
2019-05-11T14:56:48.528Z,0.53
2019-05-11T14:59:18.520Z,0.50
2019-05-11T15:01:49.030Z,0.63
2019-05-11T15:04:18.387Z,0.73
2019-05-11T15:06:48.942Z,0.60
2019-05-11T15:09:18.370Z,0.70
2019-05-11T15:11:48.013Z,1.23
2019-05-11T15:14:19.708Z,0.43
2019-05-11T15:16:48.672Z,0.43
2019-05-11T15:19:18.509Z,0.50
2019-05-11T15:21:54.083Z,1.17
2019-05-11T15:24:22.897Z,0.63
2019-05-11T15:26:54.175Z,0.50
2019-05-11T15:29:23.340Z,1.50
2019-05-11T15:31:52.242Z,0.50
2019-05-11T15:34:21.242Z,0.80
2019-05-11T15:36:50.014Z,0.67
2019-05-11T15:39:19.816Z,0.60
2019-05-11T15:41:48.734Z,0.60
2019-05-11T15:44:18.471Z,1.33
2019-05-11T15:46:47.933Z,0.50
2019-05-11T15:49:17.981Z,0.47
2019-05-11T15:51:48.861Z,0.73
2019-05-11T15:54:18.477Z,0.60
2019-05-11T15:56:47.825Z,0.97
2019-05-11T15:59:16.818Z,1.03
2019-05-11T16:01:45.696Z,0.80
2019-05-11T16:04:14.607Z,1.03
2019-05-11T16:06:43.592Z,0.70
2019-05-11T16:09:12.698Z,0.87
2019-05-11T16:11:41.426Z,0.80
2019-05-11T16:14:11.868Z,1.17
2019-05-11T16:16:41.245Z,0.70
2019-05-11T16:19:14.795Z,0.80
2019-05-11T16:21:41.248Z,0.80
2019-05-11T16:24:10.574Z,1.10
2019-05-11T16:26:39.375Z,1.27
2019-05-11T16:29:11.427Z,1.00
2019-05-11T16:31:39.150Z,0.93
2019-05-11T16:34:08.223Z,0.63
2019-05-11T16:36:38.992Z,1.90
2019-05-11T16:39:10.343Z,1.30
2019-05-11T16:41:40.445Z,1.10
2019-05-11T16:44:09.533Z,0.87
2019-05-11T16:46:38.903Z,0.80
2019-05-11T16:49:10.761Z,1.13
2019-05-11T16:51:39.026Z,1.00
2019-05-11T16:54:08.116Z,1.17
2019-05-11T16:56:39.022Z,0.80
2019-05-11T16:59:08.332Z,0.93
2019-05-11T17:01:38.095Z,0.67
2019-05-11T17:04:07.198Z,0.80
2019-05-11T17:06:38.581Z,1.00
2019-05-11T17:09:08.834Z,0.80
2019-05-11T17:11:38.574Z,0.90
2019-05-11T17:14:08.370Z,1.53
2019-05-11T17:16:38.558Z,0.77
2019-05-11T17:19:08.046Z,1.37
2019-05-11T17:21:38.118Z,1.50
2019-05-11T17:24:07.492Z,1.30
2019-05-11T17:26:38.520Z,1.30
2019-05-11T17:29:06.775Z,1.40
2019-05-11T17:31:37.884Z,1.00
2019-05-11T17:34:09.048Z,0.90
2019-05-11T17:36:38.097Z,1.30
2019-05-11T17:39:08.272Z,1.03
2019-05-11T17:41:38.749Z,2.43
2019-05-11T17:44:08.223Z,1.77
2019-05-11T17:46:38.458Z,1.40
2019-05-11T17:49:07.969Z,1.80
2019-05-11T17:51:37.945Z,1.80
2019-05-11T17:54:08.003Z,1.60
2019-05-11T17:56:38.844Z,2.17
2019-05-11T17:59:08.396Z,2.10
2019-05-11T18:01:37.281Z,1.90
2019-05-11T18:04:08.087Z,2.10
2019-05-11T18:06:38.435Z,2.87
2019-05-11T18:09:08.638Z,1.73
2019-05-11T18:11:38.203Z,2.60
2019-05-11T18:14:08.340Z,2.60
2019-05-11T18:16:37.331Z,1.77
2019-05-11T18:19:08.539Z,2.40
2019-05-11T18:21:38.721Z,2.00
2019-05-11T18:24:09.092Z,2.67
2019-05-11T18:26:38.340Z,3.37
2019-05-11T18:29:07.330Z,2.03
2019-05-11T18:31:38.310Z,2.23
2019-05-11T18:34:08.946Z,2.30
2019-05-11T18:36:38.160Z,1.80
2019-05-11T18:39:08.130Z,2.27
2019-05-11T18:41:39.057Z,2.10
2019-05-11T18:44:08.203Z,2.00
2019-05-11T18:46:38.905Z,1.73
2019-05-11T18:49:07.705Z,1.50
2019-05-11T18:51:37.954Z,1.57
2019-05-11T18:54:09.305Z,2.03
2019-05-11T18:56:39.547Z,2.07
2019-05-11T18:59:09.153Z,1.50
2019-05-11T19:01:38.371Z,1.63
2019-05-11T19:04:07.898Z,1.60
2019-05-11T19:06:37.885Z,1.90
2019-05-11T19:09:08.032Z,1.53
2019-05-11T19:11:38.335Z,1.73
2019-05-11T19:14:08.579Z,1.50
2019-05-11T19:16:39.025Z,1.83
2019-05-11T19:19:08.375Z,1.47
2019-05-11T19:21:37.236Z,1.80
2019-05-11T19:24:09.047Z,2.20
2019-05-11T19:26:36.754Z,1.70
2019-05-11T19:29:05.717Z,1.40
2019-05-11T19:31:34.607Z,1.47
2019-05-11T19:34:03.973Z,1.83
2019-05-11T19:36:32.863Z,1.97
2019-05-11T19:39:01.745Z,2.00
2019-05-11T19:41:30.606Z,2.20
2019-05-11T19:43:59.627Z,2.67
2019-05-11T19:46:29.596Z,2.50
2019-05-11T19:48:58.537Z,3.00
2019-05-11T19:51:29.073Z,1.77
2019-05-11T19:53:57.933Z,1.67
2019-05-11T19:56:28.878Z,2.50
2019-05-11T19:58:57.913Z,2.10
2019-05-11T20:01:27.903Z,2.33
2019-05-11T20:03:57.396Z,2.27
2019-05-11T20:06:28.064Z,2.70
2019-05-11T20:08:58.092Z,2.40
2019-05-11T20:11:27.913Z,3.37
2019-05-11T20:13:58.943Z,2.27
2019-05-11T20:16:27.583Z,1.60
2019-05-11T20:18:57.801Z,2.17
2019-05-11T20:21:28.854Z,2.43
2019-05-11T20:23:57.936Z,1.50
2019-05-11T20:26:28.605Z,1.73
2019-05-11T20:28:58.773Z,1.87
2019-05-11T20:31:27.867Z,2.10
2019-05-11T20:33:57.302Z,2.10
2019-05-11T20:36:26.109Z,1.60
2019-05-11T20:38:55.227Z,1.80
2019-05-11T20:41:24.322Z,1.90
2019-05-11T20:43:53.321Z,1.40
2019-05-11T20:46:22.267Z,1.80
2019-05-11T20:48:51.302Z,1.80
2019-05-11T20:51:33.075Z,1.83
2019-05-11T20:53:50.721Z,1.50
2019-05-11T20:56:19.617Z,1.90
2019-05-11T20:58:55.204Z,1.20
2019-05-11T21:01:25.241Z,1.63
2019-05-11T21:03:54.384Z,1.90
2019-05-11T21:06:23.494Z,1.70
2019-05-11T21:08:52.399Z,1.47
2019-05-11T21:11:21.364Z,1.63
2019-05-11T21:13:50.251Z,1.50
2019-05-11T21:16:19.046Z,1.50
2019-05-11T21:18:47.830Z,2.20
2019-05-11T21:21:16.906Z,1.60
2019-05-11T21:23:48.629Z,1.43
2019-05-11T21:26:18.706Z,1.43
2019-05-11T21:28:48.694Z,1.30
2019-05-11T21:31:18.654Z,1.40
2019-05-11T21:33:48.046Z,1.40
2019-05-11T21:36:17.957Z,1.50
2019-05-11T21:38:48.301Z,1.10
2019-05-11T21:41:20.561Z,1.50
2019-05-11T21:43:49.654Z,1.30
2019-05-11T21:46:18.655Z,1.47
2019-05-11T21:48:47.940Z,1.40
2019-05-11T21:51:18.142Z,1.30
2019-05-11T21:53:48.684Z,1.70
2019-05-11T21:56:18.759Z,1.47
2019-05-11T21:58:48.131Z,1.40
2019-05-11T22:01:18.419Z,1.27
2019-05-11T22:03:48.017Z,1.60
2019-05-11T22:06:17.270Z,1.10
2019-05-11T22:08:48.250Z,1.37
2019-05-11T22:11:17.999Z,1.37
2019-05-11T22:13:48.469Z,1.27
2019-05-11T22:16:17.746Z,2.07
2019-05-11T22:18:48.488Z,1.00
2019-05-11T22:21:18.774Z,1.10
2019-05-11T22:23:50.590Z,1.00
2019-05-11T22:26:18.296Z,2.03
2019-05-11T22:28:48.136Z,0.80
2019-05-11T22:31:18.444Z,0.87
2019-05-11T22:33:48.011Z,0.97
2019-05-11T22:36:17.338Z,0.90
2019-05-11T22:38:48.204Z,1.00
2019-05-11T22:41:18.066Z,1.30
2019-05-11T22:43:50.386Z,0.90
2019-05-11T22:46:19.504Z,1.40
2019-05-11T22:48:48.963Z,1.17
2019-05-11T22:51:18.334Z,0.97
2019-05-11T22:53:50.262Z,0.90
2019-05-11T22:56:20.130Z,1.23
2019-05-11T22:58:49.970Z,1.20
2019-05-11T23:01:19.201Z,1.03
2019-05-11T23:03:48.196Z,1.27
2019-05-11T23:06:18.110Z,1.20
2019-05-11T23:08:48.294Z,1.00
2019-05-11T23:11:17.994Z,1.50
2019-05-11T23:13:47.851Z,1.67
2019-05-11T23:16:17.988Z,1.23
2019-05-11T23:18:48.059Z,1.30
2019-05-11T23:21:17.505Z,1.20
2019-05-11T23:23:47.865Z,0.57
2019-05-11T23:26:17.844Z,1.20
2019-05-11T23:28:48.663Z,1.20
2019-05-11T23:31:17.580Z,1.40
2019-05-11T23:33:46.310Z,2.30
2019-05-11T23:36:15.268Z,1.00
2019-05-11T23:38:44.009Z,1.47
2019-05-11T23:41:24.101Z,1.10
2019-05-11T23:43:43.441Z,1.30
2019-05-11T23:46:12.465Z,1.07
2019-05-11T23:48:41.163Z,1.30
2019-05-11T23:51:10.251Z,1.70
2019-05-11T23:53:39.140Z,2.20
2019-05-11T23:56:08.239Z,2.20
2019-05-11T23:58:39.051Z,2.20
